<?xml version="1.0" encoding="UTF-8" standalone="no" ?>
<gpx xmlns="http://www.topografix.com/GPX/1/1" xmlns:xsi="http://www.w3.org/2001/XMLSchema-instance" xsi:schemaLocation="http://www.topografix.com/GPX/1/1 http://www.topografix.com/GPX/1/1/gpx.xsd" version="1.1" creator="VisuGPX - https://www.visugpx.com">
  <metadata>
    <name>Magic #123</name>
  </metadata>
  <trk>
    <name><![CDATA[
Magic #1
]]></name>
    <extensions>
      <line xmlns="http://www.topografix.com/GPX/gpx_style/0/2">
        <color>0000FF</color>
        <width>4</width>
      </line>
    </extensions>
    <trkseg>
      <trkpt lat="45.41204" lon="4.6074">
        <ele>1171.2</ele>
        <time>2022-08-29T06:13:26-07:00</time>
      </trkpt>
      <trkpt lat="45.41213" lon="4.60736">
        <ele>1170.5</ele>
        <time>2022-08-29T06:13:27-07:00</time>
      </trkpt>
      <trkpt lat="45.41222" lon="4.60738">
        <ele>1171.1</ele>
        <time>2022-08-29T06:13:28-07:00</time>
      </trkpt>
      <trkpt lat="45.41251" lon="4.60727">
        <ele>1168.5</ele>
        <time>2022-08-29T06:13:29-07:00</time>
      </trkpt>
      <trkpt lat="45.41258" lon="4.60736">
        <ele>1170</ele>
        <time>2022-08-29T06:13:30-07:00</time>
      </trkpt>
      <trkpt lat="45.41272" lon="4.60741">
        <ele>1170.4</ele>
        <time>2022-08-29T06:13:31-07:00</time>
      </trkpt>
      <trkpt lat="45.41271" lon="4.60745">
        <ele>1171.3</ele>
        <time>2022-08-29T06:13:32-07:00</time>
      </trkpt>
      <trkpt lat="45.41274" lon="4.60749">
        <ele>1172</ele>
        <time>2022-08-29T06:13:33-07:00</time>
      </trkpt>
      <trkpt lat="45.41298" lon="4.60756">
        <ele>1172.2</ele>
        <time>2022-08-29T06:13:34-07:00</time>
      </trkpt>
      <trkpt lat="45.41309" lon="4.60758">
        <ele>1172.1</ele>
        <time>2022-08-29T06:13:35-07:00</time>
      </trkpt>
      <trkpt lat="45.41315" lon="4.60757">
        <ele>1171.6</ele>
        <time>2022-08-29T06:13:36-07:00</time>
      </trkpt>
      <trkpt lat="45.4132" lon="4.60752">
        <ele>1170.1</ele>
        <time>2022-08-29T06:13:37-07:00</time>
      </trkpt>
      <trkpt lat="45.41326" lon="4.6074">
        <ele>1166.9</ele>
        <time>2022-08-29T06:13:38-07:00</time>
      </trkpt>
      <trkpt lat="45.41328" lon="4.60716">
        <ele>1161.5</ele>
        <time>2022-08-29T06:13:39-07:00</time>
      </trkpt>
      <trkpt lat="45.41325" lon="4.60703">
        <ele>1158.7</ele>
        <time>2022-08-29T06:13:40-07:00</time>
      </trkpt>
      <trkpt lat="45.41326" lon="4.60692">
        <ele>1156.4</ele>
        <time>2022-08-29T06:13:41-07:00</time>
      </trkpt>
      <trkpt lat="45.41343" lon="4.60678">
        <ele>1153.3</ele>
        <time>2022-08-29T06:13:42-07:00</time>
      </trkpt>
      <trkpt lat="45.41365" lon="4.60688">
        <ele>1158.1</ele>
        <time>2022-08-29T06:13:43-07:00</time>
      </trkpt>
      <trkpt lat="45.41375" lon="4.60689">
        <ele>1158.9</ele>
        <time>2022-08-29T06:13:44-07:00</time>
      </trkpt>
      <trkpt lat="45.41377" lon="4.60693">
        <ele>1160.2</ele>
        <time>2022-08-29T06:13:45-07:00</time>
      </trkpt>
      <trkpt lat="45.4138" lon="4.60694">
        <ele>1160.3</ele>
        <time>2022-08-29T06:13:46-07:00</time>
      </trkpt>
      <trkpt lat="45.41384" lon="4.60701">
        <ele>1161.5</ele>
        <time>2022-08-29T06:13:47-07:00</time>
      </trkpt>
      <trkpt lat="45.41391" lon="4.60699">
        <ele>1160.1</ele>
        <time>2022-08-29T06:13:48-07:00</time>
      </trkpt>
      <trkpt lat="45.41398" lon="4.60693">
        <ele>1157.7</ele>
        <time>2022-08-29T06:13:49-07:00</time>
      </trkpt>
      <trkpt lat="45.41407" lon="4.60691">
        <ele>1155.1</ele>
        <time>2022-08-29T06:13:50-07:00</time>
      </trkpt>
      <trkpt lat="45.41423" lon="4.60684">
        <ele>1152.9</ele>
        <time>2022-08-29T06:13:51-07:00</time>
      </trkpt>
      <trkpt lat="45.41427" lon="4.6068">
        <ele>1151.2</ele>
        <time>2022-08-29T06:13:52-07:00</time>
      </trkpt>
      <trkpt lat="45.41433" lon="4.60677">
        <ele>1148.9</ele>
        <time>2022-08-29T06:13:53-07:00</time>
      </trkpt>
      <trkpt lat="45.41437" lon="4.60672">
        <ele>1146.8</ele>
        <time>2022-08-29T06:13:54-07:00</time>
      </trkpt>
      <trkpt lat="45.41441" lon="4.60658">
        <ele>1143.3</ele>
        <time>2022-08-29T06:13:55-07:00</time>
      </trkpt>
      <trkpt lat="45.41439" lon="4.60651">
        <ele>1142</ele>
        <time>2022-08-29T06:13:56-07:00</time>
      </trkpt>
      <trkpt lat="45.4142" lon="4.60626">
        <ele>1135.4</ele>
        <time>2022-08-29T06:13:57-07:00</time>
      </trkpt>
      <trkpt lat="45.41421" lon="4.60609">
        <ele>1130.4</ele>
        <time>2022-08-29T06:13:58-07:00</time>
      </trkpt>
      <trkpt lat="45.41423" lon="4.60602">
        <ele>1128.6</ele>
        <time>2022-08-29T06:13:59-07:00</time>
      </trkpt>
      <trkpt lat="45.41432" lon="4.60596">
        <ele>1126.5</ele>
        <time>2022-08-29T06:14:00-07:00</time>
      </trkpt>
      <trkpt lat="45.41443" lon="4.606">
        <ele>1126.3</ele>
        <time>2022-08-29T06:14:01-07:00</time>
      </trkpt>
      <trkpt lat="45.41454" lon="4.60598">
        <ele>1124.5</ele>
        <time>2022-08-29T06:14:02-07:00</time>
      </trkpt>
      <trkpt lat="45.41458" lon="4.60594">
        <ele>1123.1</ele>
        <time>2022-08-29T06:14:03-07:00</time>
      </trkpt>
      <trkpt lat="45.41462" lon="4.60592">
        <ele>1122.1</ele>
        <time>2022-08-29T06:14:04-07:00</time>
      </trkpt>
      <trkpt lat="45.41465" lon="4.60588">
        <ele>1120.9</ele>
        <time>2022-08-29T06:14:05-07:00</time>
      </trkpt>
      <trkpt lat="45.41469" lon="4.6058">
        <ele>1118.9</ele>
        <time>2022-08-29T06:14:06-07:00</time>
      </trkpt>
      <trkpt lat="45.41465" lon="4.60544">
        <ele>1107.9</ele>
        <time>2022-08-29T06:14:07-07:00</time>
      </trkpt>
      <trkpt lat="45.41468" lon="4.60524">
        <ele>1099.9</ele>
        <time>2022-08-29T06:14:08-07:00</time>
      </trkpt>
      <trkpt lat="45.41469" lon="4.60524">
        <ele>1099.4</ele>
        <time>2022-08-29T06:06:53-07:00</time>
      </trkpt>
      <trkpt lat="45.41474" lon="4.60504">
        <ele>1097.6</ele>
        <time>2022-08-29T06:06:54-07:00</time>
      </trkpt>
      <trkpt lat="45.41481" lon="4.60492">
        <ele>1096.1</ele>
        <time>2022-08-29T06:06:55-07:00</time>
      </trkpt>
      <trkpt lat="45.41487" lon="4.60486">
        <ele>1095.4</ele>
        <time>2022-08-29T06:06:56-07:00</time>
      </trkpt>
      <trkpt lat="45.41491" lon="4.60476">
        <ele>1094.3</ele>
        <time>2022-08-29T06:06:57-07:00</time>
      </trkpt>
      <trkpt lat="45.41504" lon="4.60463">
        <ele>1093.7</ele>
        <time>2022-08-29T06:06:58-07:00</time>
      </trkpt>
      <trkpt lat="45.41506" lon="4.60453">
        <ele>1092.5</ele>
        <time>2022-08-29T06:06:59-07:00</time>
      </trkpt>
      <trkpt lat="45.41506" lon="4.60444">
        <ele>1091.2</ele>
        <time>2022-08-29T06:07:00-07:00</time>
      </trkpt>
      <trkpt lat="45.41502" lon="4.60438">
        <ele>1090.1</ele>
        <time>2022-08-29T06:07:01-07:00</time>
      </trkpt>
      <trkpt lat="45.41501" lon="4.60432">
        <ele>1089.6</ele>
        <time>2022-08-29T06:07:02-07:00</time>
      </trkpt>
      <trkpt lat="45.41503" lon="4.60421">
        <ele>1088.8</ele>
        <time>2022-08-29T06:07:03-07:00</time>
      </trkpt>
      <trkpt lat="45.41501" lon="4.60412">
        <ele>1087.6</ele>
        <time>2022-08-29T06:07:04-07:00</time>
      </trkpt>
      <trkpt lat="45.41495" lon="4.60406">
        <ele>1086.4</ele>
        <time>2022-08-29T06:07:05-07:00</time>
      </trkpt>
      <trkpt lat="45.41491" lon="4.60398">
        <ele>1085.2</ele>
        <time>2022-08-29T06:07:06-07:00</time>
      </trkpt>
      <trkpt lat="45.41485" lon="4.60398">
        <ele>1085.2</ele>
        <time>2022-08-29T06:07:07-07:00</time>
      </trkpt>
      <trkpt lat="45.41479" lon="4.60397">
        <ele>1085.7</ele>
        <time>2022-08-29T06:07:08-07:00</time>
      </trkpt>
      <trkpt lat="45.41477" lon="4.60394">
        <ele>1085.6</ele>
        <time>2022-08-29T06:07:09-07:00</time>
      </trkpt>
      <trkpt lat="45.41465" lon="4.60365">
        <ele>1081.1</ele>
        <time>2022-08-29T06:07:10-07:00</time>
      </trkpt>
      <trkpt lat="45.41462" lon="4.60344">
        <ele>1078.2</ele>
        <time>2022-08-29T06:07:11-07:00</time>
      </trkpt>
      <trkpt lat="45.41464" lon="4.60328">
        <ele>1075.8</ele>
        <time>2022-08-29T06:07:12-07:00</time>
      </trkpt>
      <trkpt lat="45.4146" lon="4.60316">
        <ele>1074.5</ele>
        <time>2022-08-29T06:07:13-07:00</time>
      </trkpt>
      <trkpt lat="45.4146" lon="4.6031">
        <ele>1073.6</ele>
        <time>2022-08-29T06:07:14-07:00</time>
      </trkpt>
      <trkpt lat="45.41469" lon="4.60281">
        <ele>1068.6</ele>
        <time>2022-08-29T06:07:15-07:00</time>
      </trkpt>
      <trkpt lat="45.41484" lon="4.60268">
        <ele>1063.3</ele>
        <time>2022-08-29T06:07:16-07:00</time>
      </trkpt>
      <trkpt lat="45.41489" lon="4.60261">
        <ele>1061.6</ele>
        <time>2022-08-29T06:07:17-07:00</time>
      </trkpt>
      <trkpt lat="45.41496" lon="4.60236">
        <ele>1056.2</ele>
        <time>2022-08-29T06:07:18-07:00</time>
      </trkpt>
      <trkpt lat="45.41503" lon="4.60222">
        <ele>1051.3</ele>
        <time>2022-08-29T06:07:19-07:00</time>
      </trkpt>
      <trkpt lat="45.41506" lon="4.60207">
        <ele>1047.9</ele>
        <time>2022-08-29T06:07:20-07:00</time>
      </trkpt>
      <trkpt lat="45.41505" lon="4.602">
        <ele>1047.1</ele>
        <time>2022-08-29T06:07:21-07:00</time>
      </trkpt>
      <trkpt lat="45.41513" lon="4.60174">
        <ele>1040.8</ele>
        <time>2022-08-29T06:07:22-07:00</time>
      </trkpt>
      <trkpt lat="45.41518" lon="4.60168">
        <ele>1038.4</ele>
        <time>2022-08-29T06:07:23-07:00</time>
      </trkpt>
      <trkpt lat="45.41519" lon="4.60155">
        <ele>1036.2</ele>
        <time>2022-08-29T06:07:24-07:00</time>
      </trkpt>
      <trkpt lat="45.41527" lon="4.60127">
        <ele>1031.3</ele>
        <time>2022-08-29T06:07:25-07:00</time>
      </trkpt>
      <trkpt lat="45.41525" lon="4.60125">
        <ele>1031.4</ele>
        <time>2022-08-29T06:07:26-07:00</time>
      </trkpt>
      <trkpt lat="45.41523" lon="4.60116">
        <ele>1029.9</ele>
        <time>2022-08-29T06:07:27-07:00</time>
      </trkpt>
      <trkpt lat="45.41525" lon="4.60106">
        <ele>1027.6</ele>
        <time>2022-08-29T06:07:28-07:00</time>
      </trkpt>
      <trkpt lat="45.41533" lon="4.60089">
        <ele>1022.6</ele>
        <time>2022-08-29T06:07:29-07:00</time>
      </trkpt>
      <trkpt lat="45.41534" lon="4.60069">
        <ele>1016.9</ele>
        <time>2022-08-29T06:07:30-07:00</time>
      </trkpt>
      <trkpt lat="45.41543" lon="4.60051">
        <ele>1011</ele>
        <time>2022-08-29T06:07:31-07:00</time>
      </trkpt>
      <trkpt lat="45.41542" lon="4.60043">
        <ele>1009.4</ele>
        <time>2022-08-29T06:07:32-07:00</time>
      </trkpt>
      <trkpt lat="45.41536" lon="4.60027">
        <ele>1007.5</ele>
        <time>2022-08-29T06:07:33-07:00</time>
      </trkpt>
      <trkpt lat="45.41534" lon="4.60002">
        <ele>1003.7</ele>
        <time>2022-08-29T06:07:34-07:00</time>
      </trkpt>
      <trkpt lat="45.4153" lon="4.59982">
        <ele>1003.6</ele>
        <time>2022-08-29T06:07:35-07:00</time>
      </trkpt>
      <trkpt lat="45.4153" lon="4.59967">
        <ele>1000.9</ele>
        <time>2022-08-29T06:07:36-07:00</time>
      </trkpt>
      <trkpt lat="45.41534" lon="4.59923">
        <ele>996.8</ele>
        <time>2022-08-29T06:07:37-07:00</time>
      </trkpt>
      <trkpt lat="45.41539" lon="4.5991">
        <ele>993.8</ele>
        <time>2022-08-29T06:07:38-07:00</time>
      </trkpt>
      <trkpt lat="45.41551" lon="4.59885">
        <ele>986.6</ele>
        <time>2022-08-29T06:07:39-07:00</time>
      </trkpt>
      <trkpt lat="45.41559" lon="4.59851">
        <ele>983.2</ele>
        <time>2022-08-29T06:07:40-07:00</time>
      </trkpt>
      <trkpt lat="45.41567" lon="4.59834">
        <ele>979.4</ele>
        <time>2022-08-29T06:07:41-07:00</time>
      </trkpt>
      <trkpt lat="45.41575" lon="4.5983">
        <ele>976.4</ele>
        <time>2022-08-29T06:07:42-07:00</time>
      </trkpt>
      <trkpt lat="45.41593" lon="4.59833">
        <ele>970</ele>
        <time>2022-08-29T06:07:43-07:00</time>
      </trkpt>
      <trkpt lat="45.41604" lon="4.59825">
        <ele>965.3</ele>
        <time>2022-08-29T06:07:44-07:00</time>
      </trkpt>
      <trkpt lat="45.41614" lon="4.59814">
        <ele>960.6</ele>
        <time>2022-08-29T06:07:45-07:00</time>
      </trkpt>
      <trkpt lat="45.41627" lon="4.59787">
        <ele>956</ele>
        <time>2022-08-29T06:07:46-07:00</time>
      </trkpt>
      <trkpt lat="45.41643" lon="4.59778">
        <ele>947.7</ele>
        <time>2022-08-29T06:07:47-07:00</time>
      </trkpt>
      <trkpt lat="45.41654" lon="4.59766">
        <ele>939.5</ele>
        <time>2022-08-29T06:07:48-07:00</time>
      </trkpt>
      <trkpt lat="45.41653" lon="4.59762">
        <ele>940.4</ele>
        <time>2022-08-29T06:07:49-07:00</time>
      </trkpt>
      <trkpt lat="45.41646" lon="4.59753">
        <ele>946</ele>
        <time>2022-08-29T06:07:50-07:00</time>
      </trkpt>
      <trkpt lat="45.4165" lon="4.59731">
        <ele>949.1</ele>
        <time>2022-08-29T06:07:51-07:00</time>
      </trkpt>
      <trkpt lat="45.4165" lon="4.597">
        <ele>952.7</ele>
        <time>2022-08-29T06:07:52-07:00</time>
      </trkpt>
      <trkpt lat="45.41653" lon="4.59692">
        <ele>952.7</ele>
        <time>2022-08-29T06:07:53-07:00</time>
      </trkpt>
      <trkpt lat="45.41656" lon="4.59691">
        <ele>951.8</ele>
        <time>2022-08-29T06:07:54-07:00</time>
      </trkpt>
      <trkpt lat="45.41651" lon="4.59684">
        <ele>954.3</ele>
        <time>2022-08-29T06:07:55-07:00</time>
      </trkpt>
      <trkpt lat="45.4165" lon="4.59675">
        <ele>955.6</ele>
        <time>2022-08-29T06:07:56-07:00</time>
      </trkpt>
      <trkpt lat="45.41653" lon="4.59663">
        <ele>956.1</ele>
        <time>2022-08-29T06:07:57-07:00</time>
      </trkpt>
      <trkpt lat="45.41647" lon="4.59653">
        <ele>958.8</ele>
        <time>2022-08-29T06:07:58-07:00</time>
      </trkpt>
      <trkpt lat="45.41651" lon="4.5964">
        <ele>959.3</ele>
        <time>2022-08-29T06:07:59-07:00</time>
      </trkpt>
      <trkpt lat="45.41649" lon="4.59637">
        <ele>960.1</ele>
        <time>2022-08-29T06:08:00-07:00</time>
      </trkpt>
      <trkpt lat="45.41649" lon="4.59628">
        <ele>961.7</ele>
        <time>2022-08-29T06:08:01-07:00</time>
      </trkpt>
      <trkpt lat="45.41654" lon="4.59615">
        <ele>963.1</ele>
        <time>2022-08-29T06:08:02-07:00</time>
      </trkpt>
      <trkpt lat="45.41652" lon="4.59611">
        <ele>964.3</ele>
        <time>2022-08-29T06:08:03-07:00</time>
      </trkpt>
      <trkpt lat="45.41652" lon="4.59599">
        <ele>965.3</ele>
        <time>2022-08-29T06:08:04-07:00</time>
      </trkpt>
      <trkpt lat="45.41656" lon="4.59591">
        <ele>964</ele>
        <time>2022-08-29T06:08:05-07:00</time>
      </trkpt>
      <trkpt lat="45.41662" lon="4.59593">
        <ele>961.9</ele>
        <time>2022-08-29T06:08:06-07:00</time>
      </trkpt>
      <trkpt lat="45.41669" lon="4.59585">
        <ele>959.6</ele>
        <time>2022-08-29T06:08:07-07:00</time>
      </trkpt>
      <trkpt lat="45.41674" lon="4.59568">
        <ele>958.9</ele>
        <time>2022-08-29T06:08:08-07:00</time>
      </trkpt>
      <trkpt lat="45.41682" lon="4.59554">
        <ele>956.2</ele>
        <time>2022-08-29T06:08:09-07:00</time>
      </trkpt>
      <trkpt lat="45.41689" lon="4.59536">
        <ele>954.7</ele>
        <time>2022-08-29T06:08:10-07:00</time>
      </trkpt>
      <trkpt lat="45.41694" lon="4.59512">
        <ele>950</ele>
        <time>2022-08-29T06:08:11-07:00</time>
      </trkpt>
      <trkpt lat="45.41711" lon="4.59496">
        <ele>942.5</ele>
        <time>2022-08-29T06:08:12-07:00</time>
      </trkpt>
      <trkpt lat="45.41728" lon="4.59494">
        <ele>938</ele>
        <time>2022-08-29T06:08:13-07:00</time>
      </trkpt>
      <trkpt lat="45.41735" lon="4.5949">
        <ele>935.7</ele>
        <time>2022-08-29T06:08:14-07:00</time>
      </trkpt>
      <trkpt lat="45.4174" lon="4.5948">
        <ele>932.3</ele>
        <time>2022-08-29T06:08:15-07:00</time>
      </trkpt>
      <trkpt lat="45.4175" lon="4.5947">
        <ele>931</ele>
        <time>2022-08-29T06:08:16-07:00</time>
      </trkpt>
      <trkpt lat="45.41753" lon="4.59466">
        <ele>931.3</ele>
        <time>2022-08-29T06:08:17-07:00</time>
      </trkpt>
      <trkpt lat="45.41758" lon="4.59447">
        <ele>930.9</ele>
        <time>2022-08-29T06:08:18-07:00</time>
      </trkpt>
      <trkpt lat="45.41761" lon="4.59445">
        <ele>930.7</ele>
        <time>2022-08-29T06:08:19-07:00</time>
      </trkpt>
      <trkpt lat="45.41757" lon="4.59454">
        <ele>931.4</ele>
        <time>2022-08-29T06:08:20-07:00</time>
      </trkpt>
      <trkpt lat="45.41766" lon="4.59455">
        <ele>931.7</ele>
        <time>2022-08-29T06:08:21-07:00</time>
      </trkpt>
      <trkpt lat="45.4177" lon="4.59453">
        <ele>930.8</ele>
        <time>2022-08-29T06:08:22-07:00</time>
      </trkpt>
      <trkpt lat="45.41773" lon="4.59448">
        <ele>929.7</ele>
        <time>2022-08-29T06:08:23-07:00</time>
      </trkpt>
      <trkpt lat="45.41777" lon="4.59436">
        <ele>926.1</ele>
        <time>2022-08-29T06:08:24-07:00</time>
      </trkpt>
      <trkpt lat="45.4178" lon="4.59433">
        <ele>924.5</ele>
        <time>2022-08-29T06:08:25-07:00</time>
      </trkpt>
      <trkpt lat="45.41793" lon="4.59435">
        <ele>918.4</ele>
        <time>2022-08-29T06:08:26-07:00</time>
      </trkpt>
      <trkpt lat="45.41803" lon="4.59431">
        <ele>911.7</ele>
        <time>2022-08-29T06:08:27-07:00</time>
      </trkpt>
      <trkpt lat="45.41811" lon="4.59423">
        <ele>907.2</ele>
        <time>2022-08-29T06:08:28-07:00</time>
      </trkpt>
      <trkpt lat="45.4182" lon="4.59408">
        <ele>901.5</ele>
        <time>2022-08-29T06:08:29-07:00</time>
      </trkpt>
      <trkpt lat="45.41823" lon="4.59398">
        <ele>900.4</ele>
        <time>2022-08-29T06:08:30-07:00</time>
      </trkpt>
      <trkpt lat="45.41825" lon="4.59381">
        <ele>901.2</ele>
        <time>2022-08-29T06:08:31-07:00</time>
      </trkpt>
      <trkpt lat="45.41831" lon="4.59362">
        <ele>901.1</ele>
        <time>2022-08-29T06:08:32-07:00</time>
      </trkpt>
      <trkpt lat="45.41834" lon="4.59357">
        <ele>900.4</ele>
        <time>2022-08-29T06:08:33-07:00</time>
      </trkpt>
      <trkpt lat="45.4183" lon="4.59354">
        <ele>901.9</ele>
        <time>2022-08-29T06:08:34-07:00</time>
      </trkpt>
      <trkpt lat="45.41831" lon="4.5935">
        <ele>901.4</ele>
        <time>2022-08-29T06:08:35-07:00</time>
      </trkpt>
      <trkpt lat="45.41836" lon="4.59335">
        <ele>898.1</ele>
        <time>2022-08-29T06:08:36-07:00</time>
      </trkpt>
      <trkpt lat="45.41844" lon="4.5932">
        <ele>893.5</ele>
        <time>2022-08-29T06:08:37-07:00</time>
      </trkpt>
      <trkpt lat="45.41845" lon="4.59314">
        <ele>892.6</ele>
        <time>2022-08-29T06:08:38-07:00</time>
      </trkpt>
      <trkpt lat="45.41841" lon="4.59287">
        <ele>891</ele>
        <time>2022-08-29T06:08:39-07:00</time>
      </trkpt>
      <trkpt lat="45.41851" lon="4.59261">
        <ele>885.3</ele>
        <time>2022-08-29T06:08:40-07:00</time>
      </trkpt>
      <trkpt lat="45.41851" lon="4.59257">
        <ele>885.4</ele>
        <time>2022-08-29T06:08:41-07:00</time>
      </trkpt>
      <trkpt lat="45.41854" lon="4.59254">
        <ele>884.3</ele>
        <time>2022-08-29T06:08:42-07:00</time>
      </trkpt>
      <trkpt lat="45.41856" lon="4.59239">
        <ele>884.1</ele>
        <time>2022-08-29T06:08:43-07:00</time>
      </trkpt>
      <trkpt lat="45.41862" lon="4.59232">
        <ele>883.1</ele>
        <time>2022-08-29T06:08:44-07:00</time>
      </trkpt>
      <trkpt lat="45.41865" lon="4.59235">
        <ele>881.8</ele>
        <time>2022-08-29T06:08:45-07:00</time>
      </trkpt>
      <trkpt lat="45.41868" lon="4.5923">
        <ele>881.5</ele>
        <time>2022-08-29T06:08:46-07:00</time>
      </trkpt>
      <trkpt lat="45.41868" lon="4.59225">
        <ele>881.5</ele>
        <time>2022-08-29T06:08:47-07:00</time>
      </trkpt>
      <trkpt lat="45.41866" lon="4.59208">
        <ele>878.1</ele>
        <time>2022-08-29T06:08:48-07:00</time>
      </trkpt>
      <trkpt lat="45.41873" lon="4.59192">
        <ele>867.8</ele>
        <time>2022-08-29T06:08:49-07:00</time>
      </trkpt>
      <trkpt lat="45.41876" lon="4.59172">
        <ele>859.6</ele>
        <time>2022-08-29T06:08:50-07:00</time>
      </trkpt>
      <trkpt lat="45.41881" lon="4.59161">
        <ele>854</ele>
        <time>2022-08-29T06:08:51-07:00</time>
      </trkpt>
      <trkpt lat="45.41886" lon="4.59156">
        <ele>850.8</ele>
        <time>2022-08-29T06:08:52-07:00</time>
      </trkpt>
      <trkpt lat="45.41894" lon="4.59155">
        <ele>848.1</ele>
        <time>2022-08-29T06:08:53-07:00</time>
      </trkpt>
      <trkpt lat="45.41898" lon="4.59151">
        <ele>845.8</ele>
        <time>2022-08-29T06:08:54-07:00</time>
      </trkpt>
      <trkpt lat="45.41901" lon="4.59143">
        <ele>842.9</ele>
        <time>2022-08-29T06:08:55-07:00</time>
      </trkpt>
      <trkpt lat="45.41905" lon="4.59137">
        <ele>840.3</ele>
        <time>2022-08-29T06:08:56-07:00</time>
      </trkpt>
      <trkpt lat="45.41911" lon="4.59134">
        <ele>838.2</ele>
        <time>2022-08-29T06:08:57-07:00</time>
      </trkpt>
      <trkpt lat="45.41919" lon="4.59134">
        <ele>836.4</ele>
        <time>2022-08-29T06:08:58-07:00</time>
      </trkpt>
      <trkpt lat="45.41928" lon="4.59141">
        <ele>836.4</ele>
        <time>2022-08-29T06:08:59-07:00</time>
      </trkpt>
      <trkpt lat="45.41936" lon="4.59142">
        <ele>835.3</ele>
        <time>2022-08-29T06:09:00-07:00</time>
      </trkpt>
      <trkpt lat="45.41944" lon="4.59134">
        <ele>833.3</ele>
        <time>2022-08-29T06:04:12-07:00</time>
      </trkpt>
      <trkpt lat="45.41947" lon="4.59127">
        <ele>832.4</ele>
        <time>2022-08-29T06:04:13-07:00</time>
      </trkpt>
      <trkpt lat="45.41945" lon="4.59109">
        <ele>831</ele>
        <time>2022-08-29T06:04:14-07:00</time>
      </trkpt>
      <trkpt lat="45.41947" lon="4.591">
        <ele>830.6</ele>
        <time>2022-08-29T06:04:15-07:00</time>
      </trkpt>
      <trkpt lat="45.41958" lon="4.59087">
        <ele>831.1</ele>
        <time>2022-08-29T06:04:16-07:00</time>
      </trkpt>
      <trkpt lat="45.41966" lon="4.59071">
        <ele>831.3</ele>
        <time>2022-08-29T06:04:17-07:00</time>
      </trkpt>
      <trkpt lat="45.41973" lon="4.59064">
        <ele>830.5</ele>
        <time>2022-08-29T06:04:18-07:00</time>
      </trkpt>
      <trkpt lat="45.41977" lon="4.59053">
        <ele>828.8</ele>
        <time>2022-08-29T06:04:19-07:00</time>
      </trkpt>
      <trkpt lat="45.41976" lon="4.59042">
        <ele>827</ele>
        <time>2022-08-29T06:04:20-07:00</time>
      </trkpt>
      <trkpt lat="45.41974" lon="4.59044">
        <ele>827.4</ele>
        <time>2022-08-29T06:04:21-07:00</time>
      </trkpt>
      <trkpt lat="45.41966" lon="4.59016">
        <ele>822.6</ele>
        <time>2022-08-29T06:04:22-07:00</time>
      </trkpt>
      <trkpt lat="45.41966" lon="4.59006">
        <ele>820.2</ele>
        <time>2022-08-29T06:04:23-07:00</time>
      </trkpt>
      <trkpt lat="45.41972" lon="4.58998">
        <ele>817.9</ele>
        <time>2022-08-29T06:04:24-07:00</time>
      </trkpt>
      <trkpt lat="45.41966" lon="4.58989">
        <ele>816.4</ele>
        <time>2022-08-29T06:04:25-07:00</time>
      </trkpt>
      <trkpt lat="45.41967" lon="4.58983">
        <ele>815.1</ele>
        <time>2022-08-29T06:04:26-07:00</time>
      </trkpt>
      <trkpt lat="45.4197" lon="4.58977">
        <ele>813.3</ele>
        <time>2022-08-29T06:04:27-07:00</time>
      </trkpt>
      <trkpt lat="45.41985" lon="4.58965">
        <ele>806.5</ele>
        <time>2022-08-29T06:04:28-07:00</time>
      </trkpt>
      <trkpt lat="45.41997" lon="4.58957">
        <ele>804.4</ele>
        <time>2022-08-29T06:04:29-07:00</time>
      </trkpt>
      <trkpt lat="45.42009" lon="4.58955">
        <ele>803.3</ele>
        <time>2022-08-29T06:04:30-07:00</time>
      </trkpt>
      <trkpt lat="45.42019" lon="4.58958">
        <ele>802.2</ele>
        <time>2022-08-29T06:04:31-07:00</time>
      </trkpt>
      <trkpt lat="45.42022" lon="4.58963">
        <ele>802</ele>
        <time>2022-08-29T06:04:32-07:00</time>
      </trkpt>
      <trkpt lat="45.4203" lon="4.5897">
        <ele>801.5</ele>
        <time>2022-08-29T06:04:33-07:00</time>
      </trkpt>
      <trkpt lat="45.42035" lon="4.58972">
        <ele>799.5</ele>
        <time>2022-08-29T06:04:34-07:00</time>
      </trkpt>
      <trkpt lat="45.42056" lon="4.58972">
        <ele>788.5</ele>
        <time>2022-08-29T06:04:35-07:00</time>
      </trkpt>
      <trkpt lat="45.42067" lon="4.58982">
        <ele>785.8</ele>
        <time>2022-08-29T06:04:36-07:00</time>
      </trkpt>
      <trkpt lat="45.42073" lon="4.58999">
        <ele>790.5</ele>
        <time>2022-08-29T06:04:37-07:00</time>
      </trkpt>
      <trkpt lat="45.42078" lon="4.59003">
        <ele>790.9</ele>
        <time>2022-08-29T06:04:38-07:00</time>
      </trkpt>
      <trkpt lat="45.4208" lon="4.59005">
        <ele>790.9</ele>
        <time>2022-08-29T06:04:39-07:00</time>
      </trkpt>
      <trkpt lat="45.42086" lon="4.59003">
        <ele>789.6</ele>
        <time>2022-08-29T06:04:40-07:00</time>
      </trkpt>
      <trkpt lat="45.42092" lon="4.5901">
        <ele>790.8</ele>
        <time>2022-08-29T06:04:41-07:00</time>
      </trkpt>
      <trkpt lat="45.42096" lon="4.5901">
        <ele>790.1</ele>
        <time>2022-08-29T06:04:42-07:00</time>
      </trkpt>
      <trkpt lat="45.42108" lon="4.5902">
        <ele>789.6</ele>
        <time>2022-08-29T06:04:43-07:00</time>
      </trkpt>
      <trkpt lat="45.42124" lon="4.5903">
        <ele>783.9</ele>
        <time>2022-08-29T06:04:44-07:00</time>
      </trkpt>
      <trkpt lat="45.42134" lon="4.59032">
        <ele>776.1</ele>
        <time>2022-08-29T06:04:45-07:00</time>
      </trkpt>
      <trkpt lat="45.42142" lon="4.5904">
        <ele>772</ele>
        <time>2022-08-29T06:04:46-07:00</time>
      </trkpt>
      <trkpt lat="45.42147" lon="4.59041">
        <ele>769.2</ele>
        <time>2022-08-29T06:04:47-07:00</time>
      </trkpt>
      <trkpt lat="45.42152" lon="4.59035">
        <ele>765.7</ele>
        <time>2022-08-29T06:04:48-07:00</time>
      </trkpt>
      <trkpt lat="45.42158" lon="4.5904">
        <ele>763</ele>
        <time>2022-08-29T06:04:49-07:00</time>
      </trkpt>
      <trkpt lat="45.42182" lon="4.59042">
        <ele>750.9</ele>
        <time>2022-08-29T06:04:50-07:00</time>
      </trkpt>
      <trkpt lat="45.42203" lon="4.59052">
        <ele>739.6</ele>
        <time>2022-08-29T06:04:51-07:00</time>
      </trkpt>
      <trkpt lat="45.42207" lon="4.59051">
        <ele>738.8</ele>
        <time>2022-08-29T06:04:52-07:00</time>
      </trkpt>
      <trkpt lat="45.42217" lon="4.59046">
        <ele>736.6</ele>
        <time>2022-08-29T06:04:53-07:00</time>
      </trkpt>
      <trkpt lat="45.42216" lon="4.59041">
        <ele>735.3</ele>
        <time>2022-08-29T06:04:54-07:00</time>
      </trkpt>
      <trkpt lat="45.42224" lon="4.59046">
        <ele>736.5</ele>
        <time>2022-08-29T06:04:55-07:00</time>
      </trkpt>
      <trkpt lat="45.42227" lon="4.59046">
        <ele>736.4</ele>
        <time>2022-08-29T06:04:56-07:00</time>
      </trkpt>
      <trkpt lat="45.42234" lon="4.59042">
        <ele>734.5</ele>
        <time>2022-08-29T06:04:57-07:00</time>
      </trkpt>
      <trkpt lat="45.42237" lon="4.59042">
        <ele>733.5</ele>
        <time>2022-08-29T06:04:58-07:00</time>
      </trkpt>
      <trkpt lat="45.42241" lon="4.59043">
        <ele>730.4</ele>
        <time>2022-08-29T06:04:59-07:00</time>
      </trkpt>
      <trkpt lat="45.42238" lon="4.59044">
        <ele>732.7</ele>
        <time>2022-08-29T06:05:00-07:00</time>
      </trkpt>
      <trkpt lat="45.4224" lon="4.59048">
        <ele>730.9</ele>
        <time>2022-08-29T06:05:01-07:00</time>
      </trkpt>
      <trkpt lat="45.42253" lon="4.59057">
        <ele>719.8</ele>
        <time>2022-08-29T06:05:02-07:00</time>
      </trkpt>
      <trkpt lat="45.42258" lon="4.59058">
        <ele>716.7</ele>
        <time>2022-08-29T06:05:03-07:00</time>
      </trkpt>
      <trkpt lat="45.42264" lon="4.59057">
        <ele>713.6</ele>
        <time>2022-08-29T06:05:04-07:00</time>
      </trkpt>
      <trkpt lat="45.42272" lon="4.59049">
        <ele>709.4</ele>
        <time>2022-08-29T06:05:05-07:00</time>
      </trkpt>
      <trkpt lat="45.42275" lon="4.59041">
        <ele>707.7</ele>
        <time>2022-08-29T06:05:06-07:00</time>
      </trkpt>
      <trkpt lat="45.42281" lon="4.59033">
        <ele>703.8</ele>
        <time>2022-08-29T06:05:07-07:00</time>
      </trkpt>
      <trkpt lat="45.42285" lon="4.59015">
        <ele>700.2</ele>
        <time>2022-08-29T06:05:08-07:00</time>
      </trkpt>
      <trkpt lat="45.42284" lon="4.59008">
        <ele>700.4</ele>
        <time>2022-08-29T06:05:09-07:00</time>
      </trkpt>
      <trkpt lat="45.42282" lon="4.59006">
        <ele>701.7</ele>
        <time>2022-08-29T06:05:10-07:00</time>
      </trkpt>
      <trkpt lat="45.42291" lon="4.59009">
        <ele>694.3</ele>
        <time>2022-08-29T06:05:11-07:00</time>
      </trkpt>
      <trkpt lat="45.42289" lon="4.59015">
        <ele>697.6</ele>
        <time>2022-08-29T06:05:12-07:00</time>
      </trkpt>
      <trkpt lat="45.42293" lon="4.59031">
        <ele>695.1</ele>
        <time>2022-08-29T06:05:13-07:00</time>
      </trkpt>
      <trkpt lat="45.42299" lon="4.59046">
        <ele>692.4</ele>
        <time>2022-08-29T06:05:14-07:00</time>
      </trkpt>
      <trkpt lat="45.42305" lon="4.59043">
        <ele>687</ele>
        <time>2022-08-29T06:05:15-07:00</time>
      </trkpt>
    </trkseg>
  </trk>
</gpx>